sensor_id;sensor_type;location;lat;lon;timestamp;pressure;altitude;pressure_sealevel;temperature
40199;BMP280;25906;43.536;26.068;2024-03-23T00:54:57;98868.47;;;3.18
40199;BMP280;25906;43.536;26.068;2024-03-23T00:57:42;98857.97;;;3.14
40199;BMP280;25906;43.536;26.068;2024-03-23T01:00:29;98855.75;;;3.16
40199;BMP280;25906;43.536;26.068;2024-03-23T01:03:14;98853.97;;;3.31
40199;BMP280;25906;43.536;26.068;2024-03-23T01:06:00;98853.22;;;3.31
40199;BMP280;25906;43.536;26.068;2024-03-23T01:08:46;98853.16;;;3.24
40199;BMP280;25906;43.536;26.068;2024-03-23T01:11:31;98852.78;;;3.22
40199;BMP280;25906;43.536;26.068;2024-03-23T01:14:17;98854.66;;;3.21
40199;BMP280;25906;43.536;26.068;2024-03-23T01:17:02;98842.31;;;3.18
40199;BMP280;25906;43.536;26.068;2024-03-23T01:19:48;98850.53;;;3.20
40199;BMP280;25906;43.536;26.068;2024-03-23T01:22:34;98845.84;;;2.96
40199;BMP280;25906;43.536;26.068;2024-03-23T01:25:19;98845.53;;;3.01
40199;BMP280;25906;43.536;26.068;2024-03-23T01:28:05;98841.13;;;3.12
40199;BMP280;25906;43.536;26.068;2024-03-23T01:30:53;98843.13;;;2.82
40199;BMP280;25906;43.536;26.068;2024-03-23T01:33:39;98845.00;;;2.81
40199;BMP280;25906;43.536;26.068;2024-03-23T01:36:24;98847.88;;;2.69
40199;BMP280;25906;43.536;26.068;2024-03-23T01:39:10;98843.34;;;2.66
40199;BMP280;25906;43.536;26.068;2024-03-23T01:41:55;98846.78;;;2.73
40199;BMP280;25906;43.536;26.068;2024-03-23T01:44:41;98840.84;;;2.76
40199;BMP280;25906;43.536;26.068;2024-03-23T01:47:26;98847.53;;;2.74
40199;BMP280;25906;43.536;26.068;2024-03-23T01:50:13;98840.72;;;3.06
40199;BMP280;25906;43.536;26.068;2024-03-23T01:53:01;98841.06;;;3.01
40199;BMP280;25906;43.536;26.068;2024-03-23T01:55:47;98836.44;;;2.84
40199;BMP280;25906;43.536;26.068;2024-03-23T01:58:33;98833.50;;;2.89
40199;BMP280;25906;43.536;26.068;2024-03-23T02:01:18;98834.25;;;2.90
40199;BMP280;25906;43.536;26.068;2024-03-23T02:04:04;98833.47;;;2.86
40199;BMP280;25906;43.536;26.068;2024-03-23T02:06:50;98831.84;;;2.74
40199;BMP280;25906;43.536;26.068;2024-03-23T02:09:35;98832.38;;;2.87
40199;BMP280;25906;43.536;26.068;2024-03-23T02:12:21;98833.91;;;2.91
40199;BMP280;25906;43.536;26.068;2024-03-23T02:15:07;98834.53;;;2.81
40199;BMP280;25906;43.536;26.068;2024-03-23T02:17:54;98838.63;;;2.79
40199;BMP280;25906;43.536;26.068;2024-03-23T02:20:39;98837.00;;;2.67
40199;BMP280;25906;43.536;26.068;2024-03-23T02:23:25;98844.09;;;2.63
40199;BMP280;25906;43.536;26.068;2024-03-23T02:26:10;98837.25;;;2.51
40199;BMP280;25906;43.536;26.068;2024-03-23T02:28:56;98847.69;;;2.51
40199;BMP280;25906;43.536;26.068;2024-03-23T02:31:41;98842.19;;;2.63
40199;BMP280;25906;43.536;26.068;2024-03-23T02:34:27;98847.78;;;2.58
40199;BMP280;25906;43.536;26.068;2024-03-23T02:37:12;98847.69;;;2.51
40199;BMP280;25906;43.536;26.068;2024-03-23T02:39:58;98853.81;;;2.62
40199;BMP280;25906;43.536;26.068;2024-03-23T02:42:43;98837.66;;;2.53
40199;BMP280;25906;43.536;26.068;2024-03-23T02:45:29;98846.59;;;2.52
40199;BMP280;25906;43.536;26.068;2024-03-23T02:48:15;98841.47;;;2.66
40199;BMP280;25906;43.536;26.068;2024-03-23T02:51:00;98844.75;;;2.56
40199;BMP280;25906;43.536;26.068;2024-03-23T02:53:45;98836.91;;;2.53
40199;BMP280;25906;43.536;26.068;2024-03-23T02:56:32;98835.44;;;2.55
40199;BMP280;25906;43.536;26.068;2024-03-23T02:59:18;98833.19;;;2.57
40199;BMP280;25906;43.536;26.068;2024-03-23T03:02:04;98837.72;;;2.60
40199;BMP280;25906;43.536;26.068;2024-03-23T03:04:50;98831.03;;;2.63
40199;BMP280;25906;43.536;26.068;2024-03-23T03:07:35;98835.53;;;2.62
40199;BMP280;25906;43.536;26.068;2024-03-23T03:10:23;98819.53;;;2.74
40199;BMP280;25906;43.536;26.068;2024-03-23T03:13:08;98826.56;;;2.67
40199;BMP280;25906;43.536;26.068;2024-03-23T03:15:54;98827.31;;;2.67
40199;BMP280;25906;43.536;26.068;2024-03-23T03:18:39;98823.56;;;2.65
40199;BMP280;25906;43.536;26.068;2024-03-23T03:21:28;98829.84;;;2.57
40199;BMP280;25906;43.536;26.068;2024-03-23T03:24:14;98823.00;;;2.45
40199;BMP280;25906;43.536;26.068;2024-03-23T03:27:00;98821.53;;;2.48
40199;BMP280;25906;43.536;26.068;2024-03-23T03:29:48;98824.06;;;2.41
40199;BMP280;25906;43.536;26.068;2024-03-23T03:32:34;98821.09;;;2.42
40199;BMP280;25906;43.536;26.068;2024-03-23T03:35:20;98823.25;;;2.33
40199;BMP280;25906;43.536;26.068;2024-03-23T03:38:06;98824.75;;;2.34
40199;BMP280;25906;43.536;26.068;2024-03-23T03:40:51;98818.84;;;2.41
40199;BMP280;25906;43.536;26.068;2024-03-23T03:43:38;98825.69;;;2.52
40199;BMP280;25906;43.536;26.068;2024-03-23T03:46:23;98812.78;;;2.33
40199;BMP280;25906;43.536;26.068;2024-03-23T03:49:09;98826.25;;;2.35
40199;BMP280;25906;43.536;26.068;2024-03-23T03:51:54;98817.28;;;2.29
40199;BMP280;25906;43.536;26.068;2024-03-23T03:54:40;98818.75;;;2.30
40199;BMP280;25906;43.536;26.068;2024-03-23T03:57:25;98818.81;;;2.37
40199;BMP280;25906;43.536;26.068;2024-03-23T04:00:11;98820.81;;;2.47
40199;BMP280;25906;43.536;26.068;2024-03-23T04:02:57;98826.06;;;2.51
40199;BMP280;25906;43.536;26.068;2024-03-23T04:05:42;98818.06;;;2.36
40199;BMP280;25906;43.536;26.068;2024-03-23T04:08:28;98821.47;;;2.41
40199;BMP280;25906;43.536;26.068;2024-03-23T04:11:13;98817.34;;;2.40
40199;BMP280;25906;43.536;26.068;2024-03-23T04:13:59;98822.53;;;2.36
40199;BMP280;25906;43.536;26.068;2024-03-23T04:16:44;98816.97;;;2.38
40199;BMP280;25906;43.536;26.068;2024-03-23T04:19:30;98818.00;;;2.29
40199;BMP280;25906;43.536;26.068;2024-03-23T04:22:15;98819.94;;;2.36
40199;BMP280;25906;43.536;26.068;2024-03-23T04:25:01;98816.50;;;2.32
40199;BMP280;25906;43.536;26.068;2024-03-23T04:27:52;98818.31;;;2.24
40199;BMP280;25906;43.536;26.068;2024-03-23T04:30:37;98815.63;;;2.17
40199;BMP280;25906;43.536;26.068;2024-03-23T04:33:23;98823.91;;;2.23
40199;BMP280;25906;43.536;26.068;2024-03-23T04:36:08;98825.44;;;2.27
40199;BMP280;25906;43.536;26.068;2024-03-23T04:38:56;98825.28;;;2.47
40199;BMP280;25906;43.536;26.068;2024-03-23T04:41:41;98823.56;;;2.61
40199;BMP280;25906;43.536;26.068;2024-03-23T04:44:27;98828.50;;;2.73
40199;BMP280;25906;43.536;26.068;2024-03-23T04:47:12;98823.03;;;2.86
40199;BMP280;25906;43.536;26.068;2024-03-23T04:49:58;98827.03;;;2.76
40199;BMP280;25906;43.536;26.068;2024-03-23T04:52:43;98832.25;;;2.76
40199;BMP280;25906;43.536;26.068;2024-03-23T04:55:29;98827.25;;;3.04
40199;BMP280;25906;43.536;26.068;2024-03-23T04:58:16;98830.72;;;3.15
40199;BMP280;25906;43.536;26.068;2024-03-23T05:01:01;98829.91;;;3.08
40199;BMP280;25906;43.536;26.068;2024-03-23T05:03:47;98829.91;;;3.08
40199;BMP280;25906;43.536;26.068;2024-03-23T05:06:34;98838.91;;;3.14
40199;BMP280;25906;43.536;26.068;2024-03-23T05:09:20;98831.06;;;3.10
40199;BMP280;25906;43.536;26.068;2024-03-23T05:12:06;98828.78;;;3.09
40199;BMP280;25906;43.536;26.068;2024-03-23T05:14:52;98834.44;;;3.14
40199;BMP280;25906;43.536;26.068;2024-03-23T05:17:38;98823.63;;;3.20
40199;BMP280;25906;43.536;26.068;2024-03-23T05:20:24;98827.75;;;3.17
40199;BMP280;25906;43.536;26.068;2024-03-23T05:23:09;98831.53;;;3.30
40199;BMP280;25906;43.536;26.068;2024-03-23T05:25:55;98834.56;;;3.32
40199;BMP280;25906;43.536;26.068;2024-03-23T05:28:41;98837.22;;;3.39
40199;BMP280;25906;43.536;26.068;2024-03-23T05:31:27;98832.38;;;3.41
40199;BMP280;25906;43.536;26.068;2024-03-23T05:34:13;98829.03;;;3.51
40199;BMP280;25906;43.536;26.068;2024-03-23T05:36:59;98826.16;;;3.64
40199;BMP280;25906;43.536;26.068;2024-03-23T05:39:44;98827.63;;;3.57
40199;BMP280;25906;43.536;26.068;2024-03-23T05:42:30;98818.69;;;3.73
40199;BMP280;25906;43.536;26.068;2024-03-23T05:45:15;98825.44;;;3.74
40199;BMP280;25906;43.536;26.068;2024-03-23T05:48:04;98823.63;;;3.81
40199;BMP280;25906;43.536;26.068;2024-03-23T05:50:50;98830.75;;;3.91
40199;BMP280;25906;43.536;26.068;2024-03-23T05:53:36;98823.72;;;4.06
40199;BMP280;25906;43.536;26.068;2024-03-23T05:56:21;98822.97;;;4.20
40199;BMP280;25906;43.536;26.068;2024-03-23T05:59:06;98822.63;;;4.39
40199;BMP280;25906;43.536;26.068;2024-03-23T06:01:52;98822.31;;;4.55
40199;BMP280;25906;43.536;26.068;2024-03-23T06:04:38;98821.19;;;4.73
40199;BMP280;25906;43.536;26.068;2024-03-23T06:07:23;98814.81;;;4.96
40199;BMP280;25906;43.536;26.068;2024-03-23T06:10:09;98813.28;;;5.12
40199;BMP280;25906;43.536;26.068;2024-03-23T06:12:54;98808.41;;;5.21
40199;BMP280;25906;43.536;26.068;2024-03-23T06:15:40;98812.84;;;5.49
40199;BMP280;25906;43.536;26.068;2024-03-23T06:18:25;98812.41;;;5.68
40199;BMP280;25906;43.536;26.068;2024-03-23T06:21:13;98807.81;;;5.87
40199;BMP280;25906;43.536;26.068;2024-03-23T06:23:59;98806.22;;;6.03
40199;BMP280;25906;43.536;26.068;2024-03-23T06:26:44;98808.34;;;6.26
40199;BMP280;25906;43.536;26.068;2024-03-23T06:29:31;98805.91;;;6.53
40199;BMP280;25906;43.536;26.068;2024-03-23T06:32:17;98803.50;;;6.69
40199;BMP280;25906;43.536;26.068;2024-03-23T06:35:03;98812.34;;;6.93
40199;BMP280;25906;43.536;26.068;2024-03-23T06:37:53;98807.75;;;7.01
40199;BMP280;25906;43.536;26.068;2024-03-23T06:40:39;98806.38;;;7.19
40199;BMP280;25906;43.536;26.068;2024-03-23T06:43:24;98805.09;;;7.34
40199;BMP280;25906;43.536;26.068;2024-03-23T06:46:09;98809.75;;;7.54
40199;BMP280;25906;43.536;26.068;2024-03-23T06:48:55;98807.03;;;7.64
40199;BMP280;25906;43.536;26.068;2024-03-23T06:51:41;98811.06;;;7.72
40199;BMP280;25906;43.536;26.068;2024-03-23T06:54:26;98808.03;;;8.01
40199;BMP280;25906;43.536;26.068;2024-03-23T06:57:18;98802.09;;;8.20
40199;BMP280;25906;43.536;26.068;2024-03-23T07:00:04;98803.81;;;8.30
40199;BMP280;25906;43.536;26.068;2024-03-23T07:02:50;98802.13;;;8.43
40199;BMP280;25906;43.536;26.068;2024-03-23T07:05:38;98802.34;;;8.52
40199;BMP280;25906;43.536;26.068;2024-03-23T07:08:26;98796.97;;;8.59
40199;BMP280;25906;43.536;26.068;2024-03-23T07:11:11;98795.03;;;8.83
40199;BMP280;25906;43.536;26.068;2024-03-23T07:13:57;98791.25;;;9.04
40199;BMP280;25906;43.536;26.068;2024-03-23T07:16:42;98791.03;;;9.34
40199;BMP280;25906;43.536;26.068;2024-03-23T07:19:28;98784.25;;;9.33
40199;BMP280;25906;43.536;26.068;2024-03-23T07:22:13;98786.97;;;9.65
40199;BMP280;25906;43.536;26.068;2024-03-23T07:25:00;98785.28;;;9.91
40199;BMP280;25906;43.536;26.068;2024-03-23T07:27:46;98788.66;;;10.08
40199;BMP280;25906;43.536;26.068;2024-03-23T07:30:32;98781.41;;;10.28
40199;BMP280;25906;43.536;26.068;2024-03-23T07:33:17;98780.94;;;10.46
40199;BMP280;25906;43.536;26.068;2024-03-23T07:36:03;98784.34;;;10.75
40199;BMP280;25906;43.536;26.068;2024-03-23T07:38:50;98775.72;;;10.87
40199;BMP280;25906;43.536;26.068;2024-03-23T07:41:36;98775.63;;;10.91
40199;BMP280;25906;43.536;26.068;2024-03-23T07:44:21;98769.53;;;11.19
40199;BMP280;25906;43.536;26.068;2024-03-23T07:47:12;98773.91;;;11.38
40199;BMP280;25906;43.536;26.068;2024-03-23T07:50:01;98769.66;;;11.53
40199;BMP280;25906;43.536;26.068;2024-03-23T07:52:46;98777.16;;;11.93
40199;BMP280;25906;43.536;26.068;2024-03-23T07:55:35;98776.13;;;12.12
40199;BMP280;25906;43.536;26.068;2024-03-23T07:58:20;98774.53;;;12.27
40199;BMP280;25906;43.536;26.068;2024-03-23T08:01:14;98760.19;;;12.46
40199;BMP280;25906;43.536;26.068;2024-03-23T08:04:00;98766.88;;;12.73
40199;BMP280;25906;43.536;26.068;2024-03-23T08:06:46;98770.34;;;12.82
40199;BMP280;25906;43.536;26.068;2024-03-23T08:09:32;98769.19;;;12.92
40199;BMP280;25906;43.536;26.068;2024-03-23T08:12:17;98767.97;;;13.15
40199;BMP280;25906;43.536;26.068;2024-03-23T08:15:03;98769.06;;;13.27
40199;BMP280;25906;43.536;26.068;2024-03-23T08:17:49;98769.97;;;13.33
40199;BMP280;25906;43.536;26.068;2024-03-23T08:20:35;98756.34;;;13.71
40199;BMP280;25906;43.536;26.068;2024-03-23T08:23:20;98759.63;;;13.84
40199;BMP280;25906;43.536;26.068;2024-03-23T08:26:11;98762.44;;;14.08
40199;BMP280;25906;43.536;26.068;2024-03-23T08:28:56;98760.22;;;14.06
40199;BMP280;25906;43.536;26.068;2024-03-23T08:31:42;98757.09;;;14.44
40199;BMP280;25906;43.536;26.068;2024-03-23T08:34:27;98752.84;;;14.28
40199;BMP280;25906;43.536;26.068;2024-03-23T08:37:13;98756.06;;;14.41
40199;BMP280;25906;43.536;26.068;2024-03-23T08:39:59;98749.66;;;14.66
40199;BMP280;25906;43.536;26.068;2024-03-23T08:42:44;98748.13;;;14.83
40199;BMP280;25906;43.536;26.068;2024-03-23T08:45:30;98744.59;;;15.19
40199;BMP280;25906;43.536;26.068;2024-03-23T08:48:15;98737.94;;;15.15
40199;BMP280;25906;43.536;26.068;2024-03-23T08:51:05;98738.19;;;15.26
40199;BMP280;25906;43.536;26.068;2024-03-23T08:53:51;98741.31;;;15.24
40199;BMP280;25906;43.536;26.068;2024-03-23T08:56:36;98734.09;;;15.16
40199;BMP280;25906;43.536;26.068;2024-03-23T08:59:22;98735.94;;;15.33
40199;BMP280;25906;43.536;26.068;2024-03-23T09:02:09;98733.13;;;15.61
40199;BMP280;25906;43.536;26.068;2024-03-23T09:04:54;98737.94;;;15.62
40199;BMP280;25906;43.536;26.068;2024-03-23T09:07:40;98730.06;;;15.68
40199;BMP280;25906;43.536;26.068;2024-03-23T09:10:25;98734.66;;;15.91
40199;BMP280;25906;43.536;26.068;2024-03-23T09:13:11;98731.00;;;16.18
40199;BMP280;25906;43.536;26.068;2024-03-23T09:15:56;98724.94;;;16.17
40199;BMP280;25906;43.536;26.068;2024-03-23T09:18:42;98722.34;;;16.37
40199;BMP280;25906;43.536;26.068;2024-03-23T09:21:27;98729.59;;;16.66
40199;BMP280;25906;43.536;26.068;2024-03-23T09:24:12;98713.66;;;16.42
40199;BMP280;25906;43.536;26.068;2024-03-23T09:26:58;98714.25;;;16.46
40199;BMP280;25906;43.536;26.068;2024-03-23T09:29:43;98706.25;;;16.81
40199;BMP280;25906;43.536;26.068;2024-03-23T09:32:29;98704.25;;;16.76
40199;BMP280;25906;43.536;26.068;2024-03-23T09:35:15;98696.34;;;16.67
40199;BMP280;25906;43.536;26.068;2024-03-23T09:38:00;98699.16;;;16.78
40199;BMP280;25906;43.536;26.068;2024-03-23T09:40:48;98694.00;;;16.75
40199;BMP280;25906;43.536;26.068;2024-03-23T09:43:35;98697.22;;;16.79
40199;BMP280;25906;43.536;26.068;2024-03-23T09:46:21;98700.31;;;16.72
40199;BMP280;25906;43.536;26.068;2024-03-23T09:49:07;98687.69;;;16.72
40199;BMP280;25906;43.536;26.068;2024-03-23T09:51:54;98696.47;;;17.13
40199;BMP280;25906;43.536;26.068;2024-03-23T09:54:40;98693.78;;;17.13
40199;BMP280;25906;43.536;26.068;2024-03-23T09:57:26;98682.31;;;17.07
40199;BMP280;25906;43.536;26.068;2024-03-23T10:00:14;98672.53;;;17.24
40199;BMP280;25906;43.536;26.068;2024-03-23T10:02:59;98676.00;;;17.50
40199;BMP280;25906;43.536;26.068;2024-03-23T10:05:47;98670.66;;;17.50
40199;BMP280;25906;43.536;26.068;2024-03-23T10:08:32;98669.97;;;17.75
40199;BMP280;25906;43.536;26.068;2024-03-23T10:11:18;98668.88;;;17.67
40199;BMP280;25906;43.536;26.068;2024-03-23T10:14:04;98663.97;;;17.40
40199;BMP280;25906;43.536;26.068;2024-03-23T10:16:50;98646.97;;;17.69
40199;BMP280;25906;43.536;26.068;2024-03-23T10:19:37;98643.81;;;17.65
40199;BMP280;25906;43.536;26.068;2024-03-23T10:22:23;98636.75;;;17.67
40199;BMP280;25906;43.536;26.068;2024-03-23T10:25:10;98629.97;;;17.66
40199;BMP280;25906;43.536;26.068;2024-03-23T10:28:00;98632.47;;;17.75
40199;BMP280;25906;43.536;26.068;2024-03-23T10:30:49;98619.16;;;17.87
40199;BMP280;25906;43.536;26.068;2024-03-23T10:33:34;98624.69;;;18.09
40199;BMP280;25906;43.536;26.068;2024-03-23T10:36:21;98620.97;;;18.01
40199;BMP280;25906;43.536;26.068;2024-03-23T10:39:07;98613.00;;;18.06
40199;BMP280;25906;43.536;26.068;2024-03-23T10:41:53;98608.78;;;18.31
40199;BMP280;25906;43.536;26.068;2024-03-23T10:44:41;98600.25;;;17.96
40199;BMP280;25906;43.536;26.068;2024-03-23T10:47:27;98599.03;;;17.97
40199;BMP280;25906;43.536;26.068;2024-03-23T10:50:12;98586.78;;;17.85
40199;BMP280;25906;43.536;26.068;2024-03-23T10:52:58;98584.91;;;17.96
40199;BMP280;25906;43.536;26.068;2024-03-23T10:55:44;98585.16;;;18.35
40199;BMP280;25906;43.536;26.068;2024-03-23T10:58:33;98578.88;;;18.38
40199;BMP280;25906;43.536;26.068;2024-03-23T11:01:21;98575.72;;;18.45
40199;BMP280;25906;43.536;26.068;2024-03-23T11:04:07;98579.59;;;18.39
40199;BMP280;25906;43.536;26.068;2024-03-23T11:06:52;98571.66;;;18.61
40199;BMP280;25906;43.536;26.068;2024-03-23T11:09:38;98565.19;;;18.30
40199;BMP280;25906;43.536;26.068;2024-03-23T11:15:13;98558.13;;;18.98
40199;BMP280;25906;43.536;26.068;2024-03-23T11:18:06;98553.97;;;18.91
40199;BMP280;25906;43.536;26.068;2024-03-23T11:20:53;98546.91;;;18.99
40199;BMP280;25906;43.536;26.068;2024-03-23T11:23:38;98538.13;;;18.99
40199;BMP280;25906;43.536;26.068;2024-03-23T11:26:24;98529.06;;;18.74
40199;BMP280;25906;43.536;26.068;2024-03-23T11:29:10;98539.78;;;18.74
40199;BMP280;25906;43.536;26.068;2024-03-23T11:31:56;98528.41;;;18.31
40199;BMP280;25906;43.536;26.068;2024-03-23T11:34:42;98521.31;;;18.93
40199;BMP280;25906;43.536;26.068;2024-03-23T11:37:28;98517.41;;;18.99
40199;BMP280;25906;43.536;26.068;2024-03-23T11:40:18;98512.56;;;19.36
40199;BMP280;25906;43.536;26.068;2024-03-23T11:43:14;98512.28;;;19.12
40199;BMP280;25906;43.536;26.068;2024-03-23T11:46:00;98496.72;;;19.11
40199;BMP280;25906;43.536;26.068;2024-03-23T11:48:51;98500.84;;;18.95
40199;BMP280;25906;43.536;26.068;2024-03-23T11:51:37;98498.16;;;19.01
40199;BMP280;25906;43.536;26.068;2024-03-23T11:54:24;98490.25;;;18.58
40199;BMP280;25906;43.536;26.068;2024-03-23T11:57:10;98485.50;;;19.01
40199;BMP280;25906;43.536;26.068;2024-03-23T11:59:56;98482.06;;;18.95
40199;BMP280;25906;43.536;26.068;2024-03-23T12:02:41;98479.38;;;18.95
40199;BMP280;25906;43.536;26.068;2024-03-23T12:05:27;98474.25;;;19.14
40199;BMP280;25906;43.536;26.068;2024-03-23T12:08:22;98467.19;;;19.00
40199;BMP280;25906;43.536;26.068;2024-03-23T12:11:11;98470.38;;;19.26
40199;BMP280;25906;43.536;26.068;2024-03-23T12:13:59;98460.84;;;19.19
40199;BMP280;25906;43.536;26.068;2024-03-23T12:16:45;98465.22;;;19.44
40199;BMP280;25906;43.536;26.068;2024-03-23T12:19:30;98454.00;;;18.90
40199;BMP280;25906;43.536;26.068;2024-03-23T12:22:20;98448.16;;;19.09
40199;BMP280;25906;43.536;26.068;2024-03-23T12:25:06;98441.81;;;19.12
40199;BMP280;25906;43.536;26.068;2024-03-23T12:27:51;98436.47;;;19.28
40199;BMP280;25906;43.536;26.068;2024-03-23T12:30:40;98431.84;;;19.18
40199;BMP280;25906;43.536;26.068;2024-03-23T12:33:26;98433.28;;;19.41
40199;BMP280;25906;43.536;26.068;2024-03-23T12:36:11;98425.72;;;19.51
40199;BMP280;25906;43.536;26.068;2024-03-23T12:38:57;98426.69;;;19.42
40199;BMP280;25906;43.536;26.068;2024-03-23T12:41:42;98411.56;;;19.22
40199;BMP280;25906;43.536;26.068;2024-03-23T12:44:28;98413.97;;;19.48
40199;BMP280;25906;43.536;26.068;2024-03-23T12:47:13;98411.28;;;19.48
40199;BMP280;25906;43.536;26.068;2024-03-23T12:49:59;98407.59;;;19.62
40199;BMP280;25906;43.536;26.068;2024-03-23T12:52:44;98406.13;;;19.72
40199;BMP280;25906;43.536;26.068;2024-03-23T12:55:30;98405.88;;;19.65
40199;BMP280;25906;43.536;26.068;2024-03-23T12:58:15;98392.31;;;19.35
40199;BMP280;25906;43.536;26.068;2024-03-23T13:01:01;98394.44;;;19.47
40199;BMP280;25906;43.536;26.068;2024-03-23T13:03:47;98379.59;;;19.30
40199;BMP280;25906;43.536;26.068;2024-03-23T13:06:32;98384.50;;;19.04
40199;BMP280;25906;43.536;26.068;2024-03-23T13:09:19;98382.53;;;19.21
40199;BMP280;25906;43.536;26.068;2024-03-23T13:12:05;98384.91;;;19.52
40199;BMP280;25906;43.536;26.068;2024-03-23T13:14:50;98383.56;;;19.07
40199;BMP280;25906;43.536;26.068;2024-03-23T13:17:36;98378.44;;;18.92
40199;BMP280;25906;43.536;26.068;2024-03-23T13:20:21;98373.31;;;19.05
40199;BMP280;25906;43.536;26.068;2024-03-23T13:23:07;98374.50;;;19.21
40199;BMP280;25906;43.536;26.068;2024-03-23T13:25:54;98368.44;;;19.09
40199;BMP280;25906;43.536;26.068;2024-03-23T13:28:40;98361.59;;;19.03
40199;BMP280;25906;43.536;26.068;2024-03-23T13:31:26;98368.94;;;18.69
40199;BMP280;25906;43.536;26.068;2024-03-23T13:34:12;98360.84;;;18.52
40199;BMP280;25906;43.536;26.068;2024-03-23T13:37:00;98344.31;;;18.81
40199;BMP280;25906;43.536;26.068;2024-03-23T13:39:45;98350.41;;;18.71
40199;BMP280;25906;43.536;26.068;2024-03-23T13:42:31;98347.47;;;18.74
40199;BMP280;25906;43.536;26.068;2024-03-23T13:45:16;98344.56;;;18.83
40199;BMP280;25906;43.536;26.068;2024-03-23T13:48:02;98340.84;;;19.25
40199;BMP280;25906;43.536;26.068;2024-03-23T13:50:47;98344.44;;;19.50
40199;BMP280;25906;43.536;26.068;2024-03-23T13:53:41;98345.22;;;19.34
40199;BMP280;25906;43.536;26.068;2024-03-23T13:56:27;98337.47;;;18.80
40199;BMP280;25906;43.536;26.068;2024-03-23T13:59:14;98332.13;;;18.75
40199;BMP280;25906;43.536;26.068;2024-03-23T14:01:59;98321.41;;;18.75
40199;BMP280;25906;43.536;26.068;2024-03-23T14:04:45;98326.25;;;18.87
40199;BMP280;25906;43.536;26.068;2024-03-23T14:07:31;98319.16;;;19.12
40199;BMP280;25906;43.536;26.068;2024-03-23T14:10:17;98319.75;;;19.52
40199;BMP280;25906;43.536;26.068;2024-03-23T14:13:03;98315.41;;;19.48
40199;BMP280;25906;43.536;26.068;2024-03-23T14:15:53;98307.47;;;19.10
40199;BMP280;25906;43.536;26.068;2024-03-23T14:18:38;98311.38;;;18.81
40199;BMP280;25906;43.536;26.068;2024-03-23T14:21:24;98312.38;;;18.67
40199;BMP280;25906;43.536;26.068;2024-03-23T14:24:09;98309.94;;;18.52
40199;BMP280;25906;43.536;26.068;2024-03-23T14:26:55;98309.00;;;18.55
40199;BMP280;25906;43.536;26.068;2024-03-23T14:29:40;98296.78;;;18.60
40199;BMP280;25906;43.536;26.068;2024-03-23T14:32:26;98302.16;;;18.54
40199;BMP280;25906;43.536;26.068;2024-03-23T14:35:12;98298.25;;;18.66
40199;BMP280;25906;43.536;26.068;2024-03-23T14:37:58;98295.84;;;18.46
40199;BMP280;25906;43.536;26.068;2024-03-23T14:40:43;98300.69;;;18.42
40199;BMP280;25906;43.536;26.068;2024-03-23T14:43:29;98293.63;;;18.28
40199;BMP280;25906;43.536;26.068;2024-03-23T14:46:15;98294.09;;;18.26
40199;BMP280;25906;43.536;26.068;2024-03-23T14:49:01;98291.41;;;18.32
40199;BMP280;25906;43.536;26.068;2024-03-23T14:51:46;98286.31;;;18.28
40199;BMP280;25906;43.536;26.068;2024-03-23T14:54:32;98285.81;;;18.30
40199;BMP280;25906;43.536;26.068;2024-03-23T14:57:17;98281.41;;;18.16
40199;BMP280;25906;43.536;26.068;2024-03-23T15:00:09;98280.44;;;18.08
40199;BMP280;25906;43.536;26.068;2024-03-23T15:02:56;98285.75;;;18.02
40199;BMP280;25906;43.536;26.068;2024-03-23T15:05:58;98283.13;;;18.19
40199;BMP280;25906;43.536;26.068;2024-03-23T15:08:44;98273.84;;;18.09
40199;BMP280;25906;43.536;26.068;2024-03-23T15:11:30;98273.88;;;18.48
40199;BMP280;25906;43.536;26.068;2024-03-23T15:14:18;98269.47;;;18.17
40199;BMP280;25906;43.536;26.068;2024-03-23T15:17:03;98265.34;;;18.05
40199;BMP280;25906;43.536;26.068;2024-03-23T15:19:52;98264.31;;;17.80
40199;BMP280;25906;43.536;26.068;2024-03-23T15:22:39;98273.88;;;18.20
40199;BMP280;25906;43.536;26.068;2024-03-23T15:25:24;98269.22;;;18.04
40199;BMP280;25906;43.536;26.068;2024-03-23T15:28:12;98262.56;;;17.71
40199;BMP280;25906;43.536;26.068;2024-03-23T15:30:59;98261.06;;;17.59
40199;BMP280;25906;43.536;26.068;2024-03-23T15:33:44;98256.63;;;17.45
40199;BMP280;25906;43.536;26.068;2024-03-23T15:36:30;98263.63;;;17.32
40199;BMP280;25906;43.536;26.068;2024-03-23T15:39:18;98257.38;;;17.46
40199;BMP280;25906;43.536;26.068;2024-03-23T15:42:04;98261.41;;;17.30
40199;BMP280;25906;43.536;26.068;2024-03-23T15:44:50;98257.25;;;17.23
40199;BMP280;25906;43.536;26.068;2024-03-23T15:47:39;98264.25;;;17.10
40199;BMP280;25906;43.536;26.068;2024-03-23T15:50:24;98254.47;;;17.01
40199;BMP280;25906;43.536;26.068;2024-03-23T15:53:10;98255.59;;;16.89
40199;BMP280;25906;43.536;26.068;2024-03-23T15:56:00;98249.38;;;17.03
40199;BMP280;25906;43.536;26.068;2024-03-23T15:58:46;98252.25;;;17.00
40199;BMP280;25906;43.536;26.068;2024-03-23T16:01:32;98249.66;;;16.74
40199;BMP280;25906;43.536;26.068;2024-03-23T16:04:22;98240.72;;;16.83
40199;BMP280;25906;43.536;26.068;2024-03-23T16:07:08;98245.56;;;16.79
40199;BMP280;25906;43.536;26.068;2024-03-23T16:09:53;98243.94;;;16.55
40199;BMP280;25906;43.536;26.068;2024-03-23T16:12:39;98252.88;;;16.52
40199;BMP280;25906;43.536;26.068;2024-03-23T16:15:25;98244.53;;;16.39
40199;BMP280;25906;43.536;26.068;2024-03-23T16:18:11;98239.53;;;16.27
40199;BMP280;25906;43.536;26.068;2024-03-23T16:20:59;98237.28;;;16.14
40199;BMP280;25906;43.536;26.068;2024-03-23T16:23:44;98233.00;;;16.02
40199;BMP280;25906;43.536;26.068;2024-03-23T16:26:31;98230.25;;;15.91
40199;BMP280;25906;43.536;26.068;2024-03-23T16:29:17;98234.19;;;15.75
40199;BMP280;25906;43.536;26.068;2024-03-23T16:32:02;98236.44;;;15.62
40199;BMP280;25906;43.536;26.068;2024-03-23T16:34:48;98232.34;;;15.61
40199;BMP280;25906;43.536;26.068;2024-03-23T16:37:33;98233.59;;;15.45
40199;BMP280;25906;43.536;26.068;2024-03-23T16:40:20;98228.19;;;15.20
40199;BMP280;25906;43.536;26.068;2024-03-23T16:43:06;98226.91;;;15.15
40199;BMP280;25906;43.536;26.068;2024-03-23T16:46:11;98226.19;;;15.00